sensor_id;sensor_type;location;lat;lon;timestamp;pressure;altitude;pressure_sealevel;temperature;humidity
71126;BME280;58785;55.566;38.058;2023-07-29T00:00:34;99276.38;;;17.47;84.91
71126;BME280;58785;55.566;38.058;2023-07-29T00:03:00;99274.91;;;17.51;85.01
71126;BME280;58785;55.566;38.058;2023-07-29T00:05:26;99269.91;;;17.55;84.84
71126;BME280;58785;55.566;38.058;2023-07-29T00:07:52;99258.31;;;17.55;84.73
71126;BME280;58785;55.566;38.058;2023-07-29T00:10:18;99267.41;;;17.53;84.82
71126;BME280;58785;55.566;38.058;2023-07-29T00:12:45;99269.72;;;17.57;84.90
71126;BME280;58785;55.566;38.058;2023-07-29T00:15:12;99261.63;;;17.57;84.95
71126;BME280;58785;55.566;38.058;2023-07-29T00:17:37;99254.59;;;17.49;85.01
71126;BME280;58785;55.566;38.058;2023-07-29T00:20:04;99265.59;;;17.47;85.28
71126;BME280;58785;55.566;38.058;2023-07-29T00:22:31;99258.56;;;17.40;85.18
71126;BME280;58785;55.566;38.058;2023-07-29T00:24:56;99269.16;;;17.35;85.52
71126;BME280;58785;55.566;38.058;2023-07-29T00:27:25;99260.25;;;17.28;85.53
71126;BME280;58785;55.566;38.058;2023-07-29T00:29:51;99255.31;;;17.24;85.79
71126;BME280;58785;55.566;38.058;2023-07-29T00:32:17;99254.47;;;17.24;85.85
71126;BME280;58785;55.566;38.058;2023-07-29T00:34:43;99250.31;;;17.21;85.84
71126;BME280;58785;55.566;38.058;2023-07-29T00:37:09;99255.69;;;17.21;85.86
71126;BME280;58785;55.566;38.058;2023-07-29T00:39:36;99249.50;;;17.21;85.65
71126;BME280;58785;55.566;38.058;2023-07-29T00:42:06;99267.72;;;17.26;85.70
71126;BME280;58785;55.566;38.058;2023-07-29T00:44:32;99271.47;;;17.24;85.65
71126;BME280;58785;55.566;38.058;2023-07-29T00:46:58;99275.00;;;17.25;85.80
71126;BME280;58785;55.566;38.058;2023-07-29T00:49:26;99265.66;;;17.28;85.66
71126;BME280;58785;55.566;38.058;2023-07-29T00:51:52;99258.56;;;17.33;85.73
71126;BME280;58785;55.566;38.058;2023-07-29T00:54:17;99254.66;;;17.29;85.91
71126;BME280;58785;55.566;38.058;2023-07-29T00:56:43;99254.88;;;17.28;85.71
71126;BME280;58785;55.566;38.058;2023-07-29T00:59:09;99260.25;;;17.28;85.98
71126;BME280;58785;55.566;38.058;2023-07-29T01:01:35;99253.63;;;17.23;85.95
71126;BME280;58785;55.566;38.058;2023-07-29T01:04:00;99261.53;;;17.25;85.96
71126;BME280;58785;55.566;38.058;2023-07-29T01:09:37;99249.50;;;17.21;85.94
71126;BME280;58785;55.566;38.058;2023-07-29T01:15:24;99239.97;;;17.12;86.10
71126;BME280;58785;55.566;38.058;2023-07-29T01:18:08;99226.94;;;17.02;86.07
71126;BME280;58785;55.566;38.058;2023-07-29T01:20:39;99217.22;;;17.01;86.32
71126;BME280;58785;55.566;38.058;2023-07-29T01:23:05;99221.78;;;17.01;86.36
71126;BME280;58785;55.566;38.058;2023-07-29T01:25:31;99205.84;;;16.92;86.09
71126;BME280;58785;55.566;38.058;2023-07-29T01:27:57;99213.72;;;16.94;86.53
71126;BME280;58785;55.566;38.058;2023-07-29T01:30:30;99216.00;;;16.90;86.76
71126;BME280;58785;55.566;38.058;2023-07-29T01:33:00;99211.66;;;16.89;86.47
71126;BME280;58785;55.566;38.058;2023-07-29T01:35:35;99212.91;;;16.87;86.52
71126;BME280;58785;55.566;38.058;2023-07-29T01:38:19;99216.03;;;16.84;86.54
71126;BME280;58785;55.566;38.058;2023-07-29T01:40:47;99199.22;;;16.82;86.59
71126;BME280;58785;55.566;38.058;2023-07-29T01:43:14;99218.28;;;16.87;86.53
71126;BME280;58785;55.566;38.058;2023-07-29T01:45:40;99216.63;;;16.86;86.65
71126;BME280;58785;55.566;38.058;2023-07-29T01:48:07;99226.38;;;16.87;86.61
71126;BME280;58785;55.566;38.058;2023-07-29T01:50:34;99227.41;;;16.79;86.58
71126;BME280;58785;55.566;38.058;2023-07-29T01:53:00;99225.16;;;16.76;86.49
71126;BME280;58785;55.566;38.058;2023-07-29T01:55:26;99244.59;;;16.85;86.60
71126;BME280;58785;55.566;38.058;2023-07-29T01:57:53;99241.09;;;16.84;86.44
71126;BME280;58785;55.566;38.058;2023-07-29T02:00:19;99242.53;;;16.87;86.43
71126;BME280;58785;55.566;38.058;2023-07-29T02:02:45;99245.66;;;16.84;86.42
71126;BME280;58785;55.566;38.058;2023-07-29T02:05:10;99237.34;;;16.85;86.62
71126;BME280;58785;55.566;38.058;2023-07-29T02:07:36;99233.84;;;16.85;86.38
71126;BME280;58785;55.566;38.058;2023-07-29T02:10:02;99244.19;;;16.81;86.38
71126;BME280;58785;55.566;38.058;2023-07-29T02:12:30;99278.78;;;16.84;86.61
71126;BME280;58785;55.566;38.058;2023-07-29T02:14:56;99293.09;;;16.85;86.34
71126;BME280;58785;55.566;38.058;2023-07-29T02:17:22;99298.66;;;16.83;86.16
71126;BME280;58785;55.566;38.058;2023-07-29T02:19:47;99302.59;;;16.87;86.43
71126;BME280;58785;55.566;38.058;2023-07-29T02:22:14;99299.91;;;16.87;86.17
71126;BME280;58785;55.566;38.058;2023-07-29T02:24:40;99302.78;;;16.92;86.07
71126;BME280;58785;55.566;38.058;2023-07-29T02:27:06;99299.47;;;16.90;86.36
71126;BME280;58785;55.566;38.058;2023-07-29T02:29:32;99300.91;;;16.93;86.16
71126;BME280;58785;55.566;38.058;2023-07-29T02:31:59;99296.78;;;16.90;86.22
71126;BME280;58785;55.566;38.058;2023-07-29T02:34:25;99300.34;;;16.84;86.52
71126;BME280;58785;55.566;38.058;2023-07-29T02:36:50;99289.94;;;16.81;86.59
71126;BME280;58785;55.566;38.058;2023-07-29T02:39:16;99283.53;;;16.82;86.86
71126;BME280;58785;55.566;38.058;2023-07-29T02:41:42;99273.63;;;16.76;86.81
71126;BME280;58785;55.566;38.058;2023-07-29T02:44:08;99268.63;;;16.80;86.72
71126;BME280;58785;55.566;38.058;2023-07-29T02:46:33;99272.56;;;16.84;86.92
71126;BME280;58785;55.566;38.058;2023-07-29T02:49:02;99256.84;;;16.74;86.98
71126;BME280;58785;55.566;38.058;2023-07-29T02:51:28;99241.50;;;16.68;87.10
71126;BME280;58785;55.566;38.058;2023-07-29T02:53:54;99251.25;;;16.69;87.24
71126;BME280;58785;55.566;38.058;2023-07-29T02:56:20;99238.81;;;16.68;87.03
71126;BME280;58785;55.566;38.058;2023-07-29T02:58:45;99237.34;;;16.72;87.03
71126;BME280;58785;55.566;38.058;2023-07-29T03:01:11;99228.66;;;16.77;87.07
71126;BME280;58785;55.566;38.058;2023-07-29T03:03:37;99225.38;;;16.75;87.03
71126;BME280;58785;55.566;38.058;2023-07-29T03:06:05;99234.66;;;16.72;87.06
71126;BME280;58785;55.566;38.058;2023-07-29T03:08:30;99236.97;;;16.75;86.74
71126;BME280;58785;55.566;38.058;2023-07-29T03:10:57;99229.09;;;16.74;87.36
71126;BME280;58785;55.566;38.058;2023-07-29T03:13:23;99234.25;;;16.69;87.37
71126;BME280;58785;55.566;38.058;2023-07-29T03:15:49;99235.28;;;16.67;87.68
71126;BME280;58785;55.566;38.058;2023-07-29T03:18:15;99225.97;;;16.63;87.36
71126;BME280;58785;55.566;38.058;2023-07-29T03:20:41;99227.81;;;16.56;87.16
71126;BME280;58785;55.566;38.058;2023-07-29T03:23:07;99238.38;;;16.64;87.59
71126;BME280;58785;55.566;38.058;2023-07-29T03:25:33;99229.28;;;16.65;87.50
71126;BME280;58785;55.566;38.058;2023-07-29T03:27:59;99227.63;;;16.64;87.55
71126;BME280;58785;55.566;38.058;2023-07-29T03:30:25;99223.06;;;16.65;87.42
71126;BME280;58785;55.566;38.058;2023-07-29T03:32:51;99204.44;;;16.63;87.73
71126;BME280;58785;55.566;38.058;2023-07-29T03:35:17;99206.69;;;16.66;87.50
71126;BME280;58785;55.566;38.058;2023-07-29T03:37:42;99195.09;;;16.66;87.41
71126;BME280;58785;55.566;38.058;2023-07-29T03:40:09;99189.09;;;16.64;87.54
71126;BME280;58785;55.566;38.058;2023-07-29T03:42:35;99182.91;;;16.70;87.62
71126;BME280;58785;55.566;38.058;2023-07-29T03:45:01;99173.97;;;16.63;87.80
71126;BME280;58785;55.566;38.058;2023-07-29T03:47:27;99183.50;;;16.59;87.90
71126;BME280;58785;55.566;38.058;2023-07-29T03:49:53;99175.84;;;16.56;87.99
71126;BME280;58785;55.566;38.058;2023-07-29T03:52:19;99172.13;;;16.57;87.71
71126;BME280;58785;55.566;38.058;2023-07-29T03:54:45;99166.97;;;16.55;87.76
71126;BME280;58785;55.566;38.058;2023-07-29T03:57:11;99167.34;;;16.59;87.88
71126;BME280;58785;55.566;38.058;2023-07-29T03:59:37;99174.59;;;16.58;87.48
71126;BME280;58785;55.566;38.058;2023-07-29T04:02:02;99192.00;;;16.56;87.73
71126;BME280;58785;55.566;38.058;2023-07-29T04:04:28;99180.00;;;16.58;87.94
71126;BME280;58785;55.566;38.058;2023-07-29T04:06:54;99172.75;;;16.59;87.48
71126;BME280;58785;55.566;38.058;2023-07-29T04:09:19;99172.31;;;16.62;87.82
71126;BME280;58785;55.566;38.058;2023-07-29T04:11:45;99165.88;;;16.63;87.62
71126;BME280;58785;55.566;38.058;2023-07-29T04:14:11;99172.13;;;16.63;87.57
71126;BME280;58785;55.566;38.058;2023-07-29T04:16:36;99157.63;;;16.64;87.51
71126;BME280;58785;55.566;38.058;2023-07-29T04:19:02;99164.66;;;16.72;87.32
71126;BME280;58785;55.566;38.058;2023-07-29T04:21:28;99164.28;;;16.69;87.23
71126;BME280;58785;55.566;38.058;2023-07-29T04:23:53;99161.75;;;16.67;87.37
71126;BME280;58785;55.566;38.058;2023-07-29T04:26:19;99146.47;;;16.48;87.67
71126;BME280;58785;55.566;38.058;2023-07-29T04:28:45;99142.72;;;16.49;87.88
71126;BME280;58785;55.566;38.058;2023-07-29T04:31:11;99133.41;;;16.51;87.82
71126;BME280;58785;55.566;38.058;2023-07-29T04:33:36;99136.50;;;16.61;87.64
71126;BME280;58785;55.566;38.058;2023-07-29T04:36:02;99130.28;;;16.61;87.47
71126;BME280;58785;55.566;38.058;2023-07-29T04:38:31;99122.44;;;16.59;87.31
71126;BME280;58785;55.566;38.058;2023-07-29T04:41:00;99123.47;;;16.65;87.40
71126;BME280;58785;55.566;38.058;2023-07-29T04:43:30;99124.50;;;16.71;87.24
71126;BME280;58785;55.566;38.058;2023-07-29T04:45:55;99116.41;;;16.71;87.16
71126;BME280;58785;55.566;38.058;2023-07-29T04:48:22;99124.91;;;16.74;87.34
71126;BME280;58785;55.566;38.058;2023-07-29T04:50:48;99119.94;;;16.78;87.30
71126;BME280;58785;55.566;38.058;2023-07-29T04:53:13;99105.63;;;16.77;87.06
71126;BME280;58785;55.566;38.058;2023-07-29T04:55:41;99114.94;;;16.88;86.80
71126;BME280;58785;55.566;38.058;2023-07-29T04:58:09;99099.59;;;16.88;86.62
71126;BME280;58785;55.566;38.058;2023-07-29T05:00:34;99111.56;;;16.92;86.65
71126;BME280;58785;55.566;38.058;2023-07-29T05:03:00;99122.16;;;16.94;86.50
71126;BME280;58785;55.566;38.058;2023-07-29T05:05:27;99126.50;;;16.95;86.42
71126;BME280;58785;55.566;38.058;2023-07-29T05:07:52;99129.00;;;16.90;86.56
71126;BME280;58785;55.566;38.058;2023-07-29T05:10:18;99130.44;;;16.92;86.45
71126;BME280;58785;55.566;38.058;2023-07-29T05:12:45;99130.44;;;16.92;86.38
71126;BME280;58785;55.566;38.058;2023-07-29T05:15:11;99140.75;;;17.02;86.28
71126;BME280;58785;55.566;38.058;2023-07-29T05:17:37;99145.09;;;17.10;86.17
71126;BME280;58785;55.566;38.058;2023-07-29T05:20:07;99151.50;;;17.15;86.06
71126;BME280;58785;55.566;38.058;2023-07-29T05:22:37;99156.66;;;17.17;85.88
71126;BME280;58785;55.566;38.058;2023-07-29T05:25:03;99154.59;;;17.12;85.79
71126;BME280;58785;55.566;38.058;2023-07-29T05:27:29;99150.69;;;17.15;85.99
71126;BME280;58785;55.566;38.058;2023-07-29T05:29:58;99156.22;;;17.20;85.78
71126;BME280;58785;55.566;38.058;2023-07-29T05:32:24;99157.66;;;17.22;85.65
71126;BME280;58785;55.566;38.058;2023-07-29T05:34:49;99163.69;;;17.24;85.63
71126;BME280;58785;55.566;38.058;2023-07-29T05:37:15;99169.25;;;17.30;85.50
71126;BME280;58785;55.566;38.058;2023-07-29T05:39:41;99167.59;;;17.35;85.45
71126;BME280;58785;55.566;38.058;2023-07-29T05:42:07;99165.50;;;17.31;85.42
71126;BME280;58785;55.566;38.058;2023-07-29T05:44:33;99167.00;;;17.27;85.48
71126;BME280;58785;55.566;38.058;2023-07-29T05:46:59;99180.25;;;17.21;85.46
71126;BME280;58785;55.566;38.058;2023-07-29T05:49:25;99171.78;;;17.24;85.50
71126;BME280;58785;55.566;38.058;2023-07-29T05:51:50;99171.13;;;17.22;85.42
71126;BME280;58785;55.566;38.058;2023-07-29T05:54:18;99170.97;;;17.17;85.58
71126;BME280;58785;55.566;38.058;2023-07-29T05:56:44;99176.97;;;17.19;85.39
71126;BME280;58785;55.566;38.058;2023-07-29T05:59:09;99183.19;;;17.20;85.58
71126;BME280;58785;55.566;38.058;2023-07-29T06:01:35;99193.13;;;17.26;85.54
71126;BME280;58785;55.566;38.058;2023-07-29T06:04:01;99170.34;;;17.15;85.54
71126;BME280;58785;55.566;38.058;2023-07-29T06:06:26;99179.88;;;17.18;85.44
71126;BME280;58785;55.566;38.058;2023-07-29T06:08:54;99181.53;;;17.19;85.62
71126;BME280;58785;55.566;38.058;2023-07-29T06:11:19;99186.75;;;17.14;86.03
71126;BME280;58785;55.566;38.058;2023-07-29T06:13:47;99178.84;;;17.12;85.83
71126;BME280;58785;55.566;38.058;2023-07-29T06:16:13;99181.34;;;17.14;85.75
71126;BME280;58785;55.566;38.058;2023-07-29T06:18:39;99176.38;;;17.11;85.97
71126;BME280;58785;55.566;38.058;2023-07-29T06:21:04;99193.56;;;17.16;85.76
71126;BME280;58785;55.566;38.058;2023-07-29T06:23:34;99201.22;;;17.19;85.75
71126;BME280;58785;55.566;38.058;2023-07-29T06:25:59;99210.72;;;17.22;85.56
71126;BME280;58785;55.566;38.058;2023-07-29T06:28:26;99205.75;;;17.26;85.58
71126;BME280;58785;55.566;38.058;2023-07-29T06:30:52;99211.31;;;17.31;85.59
71126;BME280;58785;55.566;38.058;2023-07-29T06:33:18;99209.06;;;17.28;85.31
71126;BME280;58785;55.566;38.058;2023-07-29T06:35:44;99197.03;;;17.23;85.62
71126;BME280;58785;55.566;38.058;2023-07-29T06:38:12;99203.06;;;17.26;85.66
71126;BME280;58785;55.566;38.058;2023-07-29T06:48:04;99192.28;;;17.26;85.39
71126;BME280;58785;55.566;38.058;2023-07-29T06:50:30;99199.47;;;17.38;85.29
71126;BME280;58785;55.566;38.058;2023-07-29T06:52:55;99199.28;;;17.33;85.47
71126;BME280;58785;55.566;38.058;2023-07-29T06:55:21;99203.88;;;17.26;85.24
71126;BME280;58785;55.566;38.058;2023-07-29T06:57:47;99196.03;;;17.18;85.83
71126;BME280;58785;55.566;38.058;2023-07-29T07:00:12;99190.03;;;17.16;85.33
71126;BME280;58785;55.566;38.058;2023-07-29T07:02:38;99198.72;;;17.24;85.62
71126;BME280;58785;55.566;38.058;2023-07-29T07:05:04;99195.59;;;17.28;85.44
71126;BME280;58785;55.566;38.058;2023-07-29T07:07:30;99192.25;;;17.32;85.27
71126;BME280;58785;55.566;38.058;2023-07-29T07:09:56;99183.34;;;17.32;85.47
71126;BME280;58785;55.566;38.058;2023-07-29T07:12:22;99189.16;;;17.35;85.43
71126;BME280;58785;55.566;38.058;2023-07-29T07:14:47;99194.09;;;17.38;85.44
71126;BME280;58785;55.566;38.058;2023-07-29T07:17:13;99205.31;;;17.35;85.16
71126;BME280;58785;55.566;38.058;2023-07-29T07:19:39;99203.22;;;17.37;85.33
71126;BME280;58785;55.566;38.058;2023-07-29T07:22:05;99188.69;;;17.38;85.32
71126;BME280;58785;55.566;38.058;2023-07-29T07:24:31;99192.63;;;17.42;85.35
71126;BME280;58785;55.566;38.058;2023-07-29T07:26:56;99192.81;;;17.47;85.17
71126;BME280;58785;55.566;38.058;2023-07-29T07:29:22;99206.69;;;17.51;85.23
71126;BME280;58785;55.566;38.058;2023-07-29T07:31:52;99204.41;;;17.55;85.19
71126;BME280;58785;55.566;38.058;2023-07-29T07:34:19;99200.47;;;17.50;85.22
71126;BME280;58785;55.566;38.058;2023-07-29T07:36:45;99210.88;;;17.40;85.01
71126;BME280;58785;55.566;38.058;2023-07-29T07:39:10;99211.53;;;17.36;85.45
71126;BME280;58785;55.566;38.058;2023-07-29T07:41:39;99203.66;;;17.34;85.41
71126;BME280;58785;55.566;38.058;2023-07-29T07:44:05;99215.44;;;17.33;85.46
71126;BME280;58785;55.566;38.058;2023-07-29T07:46:30;99215.06;;;17.30;85.47
71126;BME280;58785;55.566;38.058;2023-07-29T07:48:56;99225.84;;;17.30;85.38
71126;BME280;58785;55.566;38.058;2023-07-29T07:51:22;99219.63;;;17.29;85.38
71126;BME280;58785;55.566;38.058;2023-07-29T07:53:48;99219.22;;;17.26;84.94
71126;BME280;58785;55.566;38.058;2023-07-29T07:56:14;99219.63;;;17.22;85.54
71126;BME280;58785;55.566;38.058;2023-07-29T07:58:40;99218.41;;;17.18;85.42
71126;BME280;58785;55.566;38.058;2023-07-29T08:01:07;99225.25;;;17.21;85.64
71126;BME280;58785;55.566;38.058;2023-07-29T08:03:34;99220.47;;;17.23;85.53
71126;BME280;58785;55.566;38.058;2023-07-29T08:06:00;99230.22;;;17.24;85.52
71126;BME280;58785;55.566;38.058;2023-07-29T08:08:26;99222.34;;;17.22;85.37
71126;BME280;58785;55.566;38.058;2023-07-29T08:10:53;99229.81;;;17.20;85.41
71126;BME280;58785;55.566;38.058;2023-07-29T08:13:22;99228.75;;;17.21;85.25
71126;BME280;58785;55.566;38.058;2023-07-29T08:15:50;99230.03;;;17.19;85.27
71126;BME280;58785;55.566;38.058;2023-07-29T08:18:16;99229.00;;;17.13;85.50
71126;BME280;58785;55.566;38.058;2023-07-29T08:20:55;99234.19;;;17.15;85.78
71126;BME280;58785;55.566;38.058;2023-07-29T08:23:24;99232.53;;;17.14;85.80
71126;BME280;58785;55.566;38.058;2023-07-29T08:25:52;99233.38;;;17.14;85.81
71126;BME280;58785;55.566;38.058;2023-07-29T08:28:18;99232.13;;;17.10;85.94
71126;BME280;58785;55.566;38.058;2023-07-29T08:30:44;99226.75;;;17.04;85.91
71126;BME280;58785;55.566;38.058;2023-07-29T08:33:10;99232.16;;;17.04;86.20
71126;BME280;58785;55.566;38.058;2023-07-29T08:35:36;99237.31;;;17.05;86.14
71126;BME280;58785;55.566;38.058;2023-07-29T08:38:02;99233.16;;;17.09;86.02
71126;BME280;58785;55.566;38.058;2023-07-29T08:40:29;99239.81;;;17.07;86.00
71126;BME280;58785;55.566;38.058;2023-07-29T08:42:57;99235.03;;;17.09;86.18
71126;BME280;58785;55.566;38.058;2023-07-29T08:45:24;99237.72;;;17.09;86.49
71126;BME280;58785;55.566;38.058;2023-07-29T08:47:55;99241.44;;;17.08;86.55
71126;BME280;58785;55.566;38.058;2023-07-29T08:50:24;99238.16;;;17.06;86.33
71126;BME280;58785;55.566;38.058;2023-07-29T08:52:52;99229.84;;;17.01;86.67
71126;BME280;58785;55.566;38.058;2023-07-29T08:55:18;99239.38;;;17.03;86.56
71126;BME280;58785;55.566;38.058;2023-07-29T08:57:46;99232.75;;;17.06;86.70
71126;BME280;58785;55.566;38.058;2023-07-29T09:00:12;99253.66;;;17.10;86.81
71126;BME280;58785;55.566;38.058;2023-07-29T09:02:38;99252.00;;;17.09;86.66
71126;BME280;58785;55.566;38.058;2023-07-29T09:05:04;99250.13;;;17.16;86.68
71126;BME280;58785;55.566;38.058;2023-07-29T09:07:31;99250.75;;;17.18;86.82
71126;BME280;58785;55.566;38.058;2023-07-29T09:09:58;99250.09;;;17.23;86.84
71126;BME280;58785;55.566;38.058;2023-07-29T09:12:24;99254.25;;;17.26;86.68
71126;BME280;58785;55.566;38.058;2023-07-29T09:14:53;99258.81;;;17.25;86.82
71126;BME280;58785;55.566;38.058;2023-07-29T09:17:20;99254.03;;;17.27;86.83
71126;BME280;58785;55.566;38.058;2023-07-29T09:19:50;99254.66;;;17.29;86.76
71126;BME280;58785;55.566;38.058;2023-07-29T09:22:20;99255.91;;;17.27;86.84
71126;BME280;58785;55.566;38.058;2023-07-29T09:24:49;99249.28;;;17.22;86.89
71126;BME280;58785;55.566;38.058;2023-07-29T09:27:25;99251.56;;;17.26;87.18
71126;BME280;58785;55.566;38.058;2023-07-29T09:29:53;99251.13;;;17.29;87.04
71126;BME280;58785;55.566;38.058;2023-07-29T09:32:22;99256.31;;;17.30;86.77
71126;BME280;58785;55.566;38.058;2023-07-29T09:34:48;99256.13;;;17.25;86.82
71126;BME280;58785;55.566;38.058;2023-07-29T09:37:21;99259.44;;;17.20;86.73
71126;BME280;58785;55.566;38.058;2023-07-29T09:39:48;99246.41;;;17.11;87.02
71126;BME280;58785;55.566;38.058;2023-07-29T09:42:21;99250.53;;;17.13;87.11
71126;BME280;58785;55.566;38.058;2023-07-29T09:44:50;99252.63;;;17.11;87.27
71126;BME280;58785;55.566;38.058;2023-07-29T09:47:21;99252.22;;;17.08;87.39
71126;BME280;58785;55.566;38.058;2023-07-29T09:49:47;99254.69;;;17.16;87.22
71126;BME280;58785;55.566;38.058;2023-07-29T09:52:20;99254.06;;;17.20;87.20
71126;BME280;58785;55.566;38.058;2023-07-29T09:54:47;99248.28;;;17.17;87.06
71126;BME280;58785;55.566;38.058;2023-07-29T09:57:14;99261.31;;;17.20;87.17
71126;BME280;58785;55.566;38.058;2023-07-29T09:59:40;99260.69;;;17.18;87.56
71126;BME280;58785;55.566;38.058;2023-07-29T10:02:13;99258.84;;;17.18;87.30
71126;BME280;58785;55.566;38.058;2023-07-29T10:04:41;99255.31;;;17.24;87.40
71126;BME280;58785;55.566;38.058;2023-07-29T10:07:09;99250.94;;;17.23;87.29
71126;BME280;58785;55.566;38.058;2023-07-29T10:09:36;99261.31;;;17.27;87.08
71126;BME280;58785;55.566;38.058;2023-07-29T10:12:04;99248.66;;;17.20;87.24
71126;BME280;58785;55.566;38.058;2023-07-29T10:14:31;99247.22;;;17.24;87.12
71126;BME280;58785;55.566;38.058;2023-07-29T10:16:57;99254.66;;;17.29;86.98
71126;BME280;58785;55.566;38.058;2023-07-29T10:19:25;99254.66;;;17.29;86.70
71126;BME280;58785;55.566;38.058;2023-07-29T10:21:55;99261.09;;;17.28;86.68
71126;BME280;58785;55.566;38.058;2023-07-29T10:24:29;99258.84;;;17.18;86.78
71126;BME280;58785;55.566;38.058;2023-07-29T10:26:59;99257.56;;;17.21;86.88
71126;BME280;58785;55.566;38.058;2023-07-29T10:29:30;99248.88;;;17.19;86.75
71126;BME280;58785;55.566;38.058;2023-07-29T10:31:58;99250.53;;;17.27;86.73
71126;BME280;58785;55.566;38.058;2023-07-29T10:34:26;99255.03;;;17.33;86.66
71126;BME280;58785;55.566;38.058;2023-07-29T10:36:53;99256.25;;;17.43;86.45
71126;BME280;58785;55.566;38.058;2023-07-29T10:39:19;99265.81;;;17.46;85.91
71126;BME280;58785;55.566;38.058;2023-07-29T10:47:13;99268.91;;;17.43;85.42
71126;BME280;58785;55.566;38.058;2023-07-29T10:49:43;99264.16;;;17.38;85.57
71126;BME280;58785;55.566;38.058;2023-07-29T10:52:16;99269.13;;;17.41;85.61
71126;BME280;58785;55.566;38.058;2023-07-29T10:54:46;99271.00;;;17.41;85.58
71126;BME280;58785;55.566;38.058;2023-07-29T10:57:30;99277.81;;;17.43;85.72
71126;BME280;58785;55.566;38.058;2023-07-29T10:59:56;99271.22;;;17.33;85.53
71126;BME280;58785;55.566;38.058;2023-07-29T11:02:28;99283.69;;;17.34;85.67
71126;BME280;58785;55.566;38.058;2023-07-29T11:04:54;99274.34;;;17.30;85.58
71126;BME280;58785;55.566;38.058;2023-07-29T11:07:21;99279.53;;;17.31;85.75
71126;BME280;58785;55.566;38.058;2023-07-29T11:12:41;99278.91;;;17.22;85.84
71126;BME280;58785;55.566;38.058;2023-07-29T11:20:19;99285.72;;;17.32;85.82
71126;BME280;58785;55.566;38.058;2023-07-29T11:22:45;99283.47;;;17.29;85.90
71126;BME280;58785;55.566;38.058;2023-07-29T11:25:13;99291.34;;;17.30;85.81
71126;BME280;58785;55.566;38.058;2023-07-29T11:27:40;99275.00;;;17.25;85.84
71126;BME280;58785;55.566;38.058;2023-07-29T11:30:08;99282.22;;;17.31;85.98
71126;BME280;58785;55.566;38.058;2023-07-29T11:32:35;99286.38;;;17.34;85.75
71126;BME280;58785;55.566;38.058;2023-07-29T11:35:15;99293.00;;;17.31;86.21
71126;BME280;58785;55.566;38.058;2023-07-29T11:37:44;99290.50;;;17.30;85.95
71126;BME280;58785;55.566;38.058;2023-07-29T11:40:14;99304.00;;;17.23;86.06
71126;BME280;58785;55.566;38.058;2023-07-29T11:42:40;99295.50;;;17.19;86.21
71126;BME280;58785;55.566;38.058;2023-07-29T11:45:07;99297.38;;;17.12;86.12
71126;BME280;58785;55.566;38.058;2023-07-29T11:47:34;99310.66;;;17.14;86.37
71126;BME280;58785;55.566;38.058;2023-07-29T11:50:05;99299.69;;;17.15;86.18
71126;BME280;58785;55.566;38.058;2023-07-29T11:52:35;99313.75;;;17.11;85.71
71126;BME280;58785;55.566;38.058;2023-07-29T11:55:02;99311.50;;;17.08;86.13
71126;BME280;58785;55.566;38.058;2023-07-29T11:57:35;99315.22;;;17.07;86.14
71126;BME280;58785;55.566;38.058;2023-07-29T12:00:05;99315.00;;;17.08;86.02
71126;BME280;58785;55.566;38.058;2023-07-29T12:02:36;99320.59;;;17.13;85.97
71126;BME280;58785;55.566;38.058;2023-07-29T12:05:04;99315.84;;;17.09;85.80
71126;BME280;58785;55.566;38.058;2023-07-29T12:07:30;99328.66;;;17.13;86.15
71126;BME280;58785;55.566;38.058;2023-07-29T12:09:56;99329.09;;;17.10;86.28
71126;BME280;58785;55.566;38.058;2023-07-29T12:12:23;99324.75;;;17.09;85.86
71126;BME280;58785;55.566;38.058;2023-07-29T12:14:48;99315.63;;;17.10;85.93
71126;BME280;58785;55.566;38.058;2023-07-29T12:17:15;99320.19;;;17.10;85.78
71126;BME280;58785;55.566;38.058;2023-07-29T12:19:42;99327.00;;;17.12;85.83
71126;BME280;58785;55.566;38.058;2023-07-29T12:22:10;99327.44;;;17.16;86.47
71126;BME280;58785;55.566;38.058;2023-07-29T12:24:38;99325.97;;;17.13;86.04
71126;BME280;58785;55.566;38.058;2023-07-29T12:27:04;99326.00;;;17.07;86.11
71126;BME280;58785;55.566;38.058;2023-07-29T12:29:30;99312.53;;;17.07;86.06
71126;BME280;58785;55.566;38.058;2023-07-29T12:32:03;99311.50;;;17.08;86.29
71126;BME280;58785;55.566;38.058;2023-07-29T12:34:30;99316.66;;;17.03;86.31
71126;BME280;58785;55.566;38.058;2023-07-29T12:36:58;99308.81;;;16.94;86.67
71126;BME280;58785;55.566;38.058;2023-07-29T12:39:33;99319.59;;;16.94;86.63
71126;BME280;58785;55.566;38.058;2023-07-29T12:42:00;99318.34;;;16.90;86.81
71126;BME280;58785;55.566;38.058;2023-07-29T12:44:32;99314.38;;;16.93;86.62
71126;BME280;58785;55.566;38.058;2023-07-29T12:46:59;99311.06;;;16.91;86.85
71126;BME280;58785;55.566;38.058;2023-07-29T12:49:25;99316.47;;;16.98;86.84
71126;BME280;58785;55.566;38.058;2023-07-29T12:51:50;99313.34;;;17.01;86.90
71126;BME280;58785;55.566;38.058;2023-07-29T12:54:16;99321.88;;;17.04;86.76
71126;BME280;58785;55.566;38.058;2023-07-29T12:56:42;99317.69;;;17.02;86.80
71126;BME280;58785;55.566;38.058;2023-07-29T12:59:07;99310.06;;;17.05;86.72
71126;BME280;58785;55.566;38.058;2023-07-29T13:01:34;99312.75;;;17.05;86.46
71126;BME280;58785;55.566;38.058;2023-07-29T13:04:00;99306.53;;;17.05;86.67
71126;BME280;58785;55.566;38.058;2023-07-29T13:06:25;99306.53;;;17.05;86.51
71126;BME280;58785;55.566;38.058;2023-07-29T13:08:51;99303.00;;;17.04;86.10
71126;BME280;58785;55.566;38.058;2023-07-29T13:11:17;99303.41;;;17.08;86.39
71126;BME280;58785;55.566;38.058;2023-07-29T13:13:43;99300.50;;;17.09;85.95
71126;BME280;58785;55.566;38.058;2023-07-29T13:16:11;99299.25;;;17.12;86.15